Beryl Junction, Utah
Current Conditions -  °F | °C
As of 3:53 PM on Thursday 27 Nov 2014 (Local Time) from KCDC Reporting Station
Clear Clear  
Wind Chill: 15°   Ceiling: Unl
Heat Index: 15°   Visibility: 10mi
Dew Point: -9°   Wind: 6mph
Humidity: 18%   Direction: NA
Pressure: 30.28"   Gusts: NA
Location:  38.0286°N, 113.572°W
Report Text: KCDC 272253Z AUTO VRB05KT 10SM CLR 15/M09 A3028 RMK AO2 SLP236 T01501094
Loading
Personal Weather Stations






























Interactive Weather Map New forecast layout! Learn more

10-Day Weather Forecast

Advertisements
Track Severe Weather on mobile